Time;durP1;ratioP1;P1;durP2;ratioP2;P2;SDS_P1;SDS_P2;PMS_P1;PMS_P2;Temp;Humidity;BMP_temperature;BMP_pressure;BME280_temperature;BME280_humidity;BME280_pressure;Samples;Min_cycle;Max_cycle;Signal;HPM_P1;HPM_P2
2023/08/06 00:02:00;;;;;;;7.15;3.95;;;14.90;99.90;;;;;;5052051;28;20204;-82
2023/08/06 00:04:27;;;;;;;8.20;4.13;;;14.70;99.90;;;;;;5051724;28;20203;-81
2023/08/06 00:06:54;;;;;;;6.65;4.57;;;14.80;99.90;;;;;;5055711;28;20222;-81
2023/08/06 00:09:21;;;;;;;10.32;4.35;;;14.80;99.90;;;;;;5054270;28;20229;-81
2023/08/06 00:11:49;;;;;;;8.15;3.65;;;14.80;99.90;;;;;;5030685;28;20298;-81
2023/08/06 00:14:17;;;;;;;10.73;4.60;;;14.80;99.90;;;;;;5055580;28;20203;-81
2023/08/06 00:16:45;;;;;;;18.40;4.78;;;14.80;99.90;;;;;;5054767;28;20210;-81
2023/08/06 00:19:12;;;;;;;14.20;4.32;;;14.80;99.90;;;;;;5054794;28;20274;-80
2023/08/06 00:21:40;;;;;;;12.05;4.25;;;14.70;99.90;;;;;;5050367;28;20258;-79
2023/08/06 00:24:07;;;;;;;11.48;4.20;;;14.80;99.90;;;;;;5048357;28;20277;-80
2023/08/06 00:26:35;;;;;;;10.35;3.90;;;14.90;99.90;;;;;;5052382;28;20219;-80
2023/08/06 00:29:03;;;;;;;9.15;3.47;;;14.70;99.90;;;;;;5049949;28;20216;-80
2023/08/06 00:31:30;;;;;;;11.95;3.95;;;14.70;99.90;;;;;;5051084;28;20267;-80
2023/08/06 00:33:57;;;;;;;10.63;4.13;;;14.60;99.90;;;;;;5050853;28;20210;-79
2023/08/06 00:36:24;;;;;;;17.05;4.40;;;14.60;99.90;;;;;;5050186;28;20293;-81
2023/08/06 00:38:50;;;;;;;7.72;3.92;;;14.60;99.90;;;;;;5042863;28;20230;-80
2023/08/06 00:41:17;;;;;;;6.85;3.97;;;14.60;99.90;;;;;;5049577;28;20203;-81
2023/08/06 00:43:44;;;;;;;7.72;3.97;;;14.50;99.90;;;;;;5058243;28;20206;-80
2023/08/06 00:46:12;;;;;;;6.15;3.60;;;14.50;99.90;;;;;;5046361;28;20204;-80
2023/08/06 00:48:40;;;;;;;6.93;4.93;;;14.70;99.90;;;;;;5047685;28;20731;-79
2023/08/06 00:51:07;;;;;;;5.05;3.40;;;14.70;99.90;;;;;;5058604;28;20226;-80
2023/08/06 00:53:34;;;;;;;6.45;4.03;;;14.80;99.90;;;;;;5058441;28;20301;-80
2023/08/06 00:56:01;;;;;;;5.32;3.50;;;14.90;99.90;;;;;;5062067;28;20227;-79
2023/08/06 00:58:28;;;;;;;7.18;3.55;;;15.00;99.90;;;;;;5054051;28;20258;-81
2023/08/06 01:00:55;;;;;;;4.32;3.50;;;14.90;99.90;;;;;;5054414;28;20214;-79
2023/08/06 01:03:23;;;;;;;12.90;3.75;;;14.80;99.90;;;;;;5054616;28;20204;-81
2023/08/06 01:05:51;;;;;;;10.02;4.05;;;14.80;99.90;;;;;;5057918;28;20579;-81
2023/08/06 01:08:29;;;;;;;9.35;3.55;;;14.80;99.90;;;;;;5049819;28;20227;-79
2023/08/06 01:11:06;;;;;;;11.85;4.40;;;14.90;99.90;;;;;;5055035;28;20557;-81
2023/08/06 01:13:39;;;;;;;7.90;3.63;;;14.70;99.90;;;;;;5053462;28;20203;-80
2023/08/06 01:16:07;;;;;;;11.48;4.45;;;14.60;99.90;;;;;;5054706;28;20200;-79
2023/08/06 01:18:37;;;;;;;8.43;4.15;;;14.60;99.90;;;;;;5054223;28;20248;-79
2023/08/06 01:21:05;;;;;;;11.07;4.22;;;14.60;99.90;;;;;;5045399;28;20211;-80
2023/08/06 01:23:33;;;;;;;9.18;4.82;;;14.50;99.90;;;;;;5061568;28;20266;-80
2023/08/06 01:26:08;;;;;;;13.10;4.68;;;14.60;99.90;;;;;;5053581;28;20206;-80
2023/08/06 01:28:55;;;;;;;10.70;4.72;;;14.50;99.90;;;;;;5054646;28;20286;-80
2023/08/06 01:31:27;;;;;;;8.63;4.00;;;14.60;99.90;;;;;;5055521;28;20275;-80
2023/08/06 01:33:57;;;;;;;15.55;4.53;;;14.50;99.90;;;;;;5044952;28;20210;-79
2023/08/06 01:36:26;;;;;;;11.43;3.85;;;14.40;99.90;;;;;;5044868;28;20665;-79
2023/08/06 01:38:54;;;;;;;15.88;4.82;;;14.50;99.90;;;;;;5055925;28;20219;-80
2023/08/06 01:41:20;;;;;;;13.57;4.20;;;14.40;99.90;;;;;;5057827;28;20195;-80
2023/08/06 01:43:47;;;;;;;8.68;3.95;;;14.40;99.90;;;;;;5063751;28;20270;-81
2023/08/06 01:46:14;;;;;;;15.80;4.32;;;14.50;99.90;;;;;;5065493;28;20211;-80
2023/08/06 01:48:41;;;;;;;10.05;3.72;;;14.50;99.90;;;;;;5065078;28;20282;-80
2023/08/06 01:51:08;;;;;;;6.90;3.70;;;14.50;99.90;;;;;;5056456;28;20277;-81
2023/08/06 01:53:36;;;;;;;11.40;3.45;;;14.60;99.90;;;;;;5056519;28;20434;-81
2023/08/06 01:56:03;;;;;;;8.23;3.30;;;14.50;99.90;;;;;;5066352;28;20299;-80
2023/08/06 01:58:30;;;;;;;5.47;3.50;;;14.30;99.90;;;;;;5056077;28;20251;-80
2023/08/06 02:00:57;;;;;;;9.23;3.45;;;14.30;99.90;;;;;;5053443;28;20198;-80
2023/08/06 02:03:24;;;;;;;8.43;3.40;;;14.30;99.90;;;;;;5059941;28;20203;-80
2023/08/06 02:05:50;;;;;;;7.68;3.33;;;14.30;99.90;;;;;;5051704;28;20202;-80
2023/08/06 02:08:17;;;;;;;9.75;3.70;;;14.00;99.90;;;;;;5050023;28;20222;-81
2023/08/06 02:10:46;;;;;;;10.27;3.90;;;14.10;99.90;;;;;;5054192;28;20648;-80
2023/08/06 02:13:12;;;;;;;17.67;3.70;;;14.10;99.90;;;;;;5052315;28;20204;-80
2023/08/06 02:15:44;;;;;;;7.03;3.72;;;14.10;99.90;;;;;;5053344;28;20403;-80
2023/08/06 02:18:11;;;;;;;11.48;3.78;;;14.20;99.90;;;;;;5052520;28;20215;-81
2023/08/06 02:20:37;;;;;;;20.67;4.55;;;14.10;99.90;;;;;;5053474;28;20207;-80
2023/08/06 02:23:04;;;;;;;8.80;3.92;;;14.10;99.90;;;;;;5055468;28;20203;-80
2023/08/06 02:25:31;;;;;;;12.27;4.18;;;14.20;99.90;;;;;;5055513;28;20233;-80
2023/08/06 02:27:59;;;;;;;9.70;3.75;;;14.10;99.90;;;;;;5052212;28;20219;-81
2023/08/06 02:30:26;;;;;;;8.30;3.97;;;14.10;99.90;;;;;;5051677;28;20272;-80
2023/08/06 02:32:53;;;;;;;8.25;4.05;;;14.20;99.90;;;;;;5053759;28;20669;-81
2023/08/06 02:35:20;;;;;;;6.03;3.97;;;14.20;99.90;;;;;;5054706;28;20282;-81
2023/08/06 02:37:46;;;;;;;6.63;4.10;;;14.20;99.90;;;;;;5053730;28;20221;-81
2023/08/06 02:40:13;;;;;;;7.35;3.97;;;14.30;99.90;;;;;;5051597;28;20224;-81
2023/08/06 02:42:40;;;;;;;8.23;4.05;;;14.30;99.90;;;;;;5051919;28;20207;-80
2023/08/06 02:45:10;;;;;;;6.35;4.05;;;14.20;99.90;;;;;;5055424;28;20206;-79
2023/08/06 02:47:36;;;;;;;11.20;4.03;;;14.20;99.90;;;;;;5054295;28;20314;-81
2023/08/06 02:50:03;;;;;;;9.48;3.80;;;14.20;99.90;;;;;;5051301;28;20214;-80
2023/08/06 02:52:30;;;;;;;11.65;5.07;;;14.30;99.90;;;;;;5050569;28;20203;-80
2023/08/06 02:54:59;;;;;;;12.55;4.03;;;14.30;99.90;;;;;;5053471;28;20222;-81
2023/08/06 02:57:26;;;;;;;12.57;3.92;;;14.20;99.90;;;;;;5053590;28;20211;-81
2023/08/06 02:59:53;;;;;;;10.73;3.88;;;14.00;99.90;;;;;;5045567;28;20274;-81
2023/08/06 03:02:21;;;;;;;10.18;3.75;;;14.20;99.90;;;;;;5054881;28;20262;-80
2023/08/06 03:04:48;;;;;;;8.85;4.18;;;14.00;99.90;;;;;;5054098;28;20741;-80
2023/08/06 03:07:15;;;;;;;7.40;3.38;;;14.10;99.90;;;;;;5053251;28;20599;-81
2023/08/06 03:09:42;;;;;;;10.38;3.88;;;14.00;99.90;;;;;;5053327;28;20226;-80
2023/08/06 03:12:09;;;;;;;6.03;4.10;;;14.00;99.90;;;;;;5057824;28;20204;-81
2023/08/06 03:14:36;;;;;;;8.75;3.95;;;14.00;99.90;;;;;;5050464;28;20199;-81
2023/08/06 03:17:03;;;;;;;10.68;4.22;;;14.10;99.90;;;;;;5053421;28;20560;-81
2023/08/06 03:19:31;;;;;;;7.25;3.70;;;14.00;99.90;;;;;;5055084;28;20235;-81
2023/08/06 03:21:58;;;;;;;5.53;3.60;;;14.00;99.90;;;;;;5052356;28;20672;-80
2023/08/06 03:24:25;;;;;;;9.15;4.20;;;14.10;99.90;;;;;;5051174;28;20204;-80
2023/08/06 03:26:51;;;;;;;6.00;4.13;;;14.10;99.90;;;;;;5052970;28;20210;-80
2023/08/06 03:29:18;;;;;;;6.70;3.78;;;14.30;99.90;;;;;;5055047;28;20219;-80
2023/08/06 03:31:45;;;;;;;5.55;4.05;;;14.40;99.90;;;;;;5054794;28;20685;-79
2023/08/06 03:34:12;;;;;;;8.90;3.92;;;14.30;99.90;;;;;;5055047;28;20217;-81
2023/08/06 03:36:40;;;;;;;11.18;4.70;;;14.30;99.90;;;;;;5054809;28;20267;-80
2023/08/06 03:39:07;;;;;;;14.23;4.10;;;14.20;99.90;;;;;;5046753;28;20241;-79
2023/08/06 03:41:34;;;;;;;7.47;4.25;;;14.10;99.90;;;;;;5054918;28;20290;-81
2023/08/06 03:44:03;;;;;;;6.03;4.13;;;14.10;99.90;;;;;;5054728;28;20207;-80
2023/08/06 03:46:32;;;;;;;8.68;3.97;;;14.10;99.90;;;;;;5055243;28;20206;-81
2023/08/06 03:48:59;;;;;;;9.52;3.92;;;14.00;99.90;;;;;;5050684;28;20251;-79
2023/08/06 03:51:26;;;;;;;12.70;4.22;;;14.00;99.90;;;;;;5042440;28;20206;-80
2023/08/06 03:53:54;;;;;;;11.88;4.45;;;13.90;99.90;;;;;;5056741;28;20204;-80
2023/08/06 03:56:21;;;;;;;6.97;3.78;;;13.90;99.90;;;;;;5058331;28;20617;-79
2023/08/06 03:58:47;;;;;;;7.60;4.15;;;14.00;99.90;;;;;;5059287;28;20242;-79
2023/08/06 04:01:14;;;;;;;5.93;4.07;;;13.90;99.90;;;;;;5059384;28;20638;-80
2023/08/06 04:03:41;;;;;;;7.75;4.28;;;13.90;99.90;;;;;;5050408;28;20226;-80
2023/08/06 04:06:08;;;;;;;9.63;4.38;;;13.90;99.90;;;;;;5052864;28;20285;-80
2023/08/06 04:08:35;;;;;;;6.82;3.33;;;13.70;99.90;;;;;;5059364;28;20646;-80
2023/08/06 04:11:03;;;;;;;4.85;3.65;;;13.80;99.90;;;;;;5044502;28;20529;-80
2023/08/06 04:13:30;;;;;;;11.13;3.95;;;13.80;99.90;;;;;;5050259;28;20286;-80
2023/08/06 04:16:02;;;;;;;8.70;3.85;;;13.70;99.90;;;;;;5058949;28;20270;-80
2023/08/06 04:18:28;;;;;;;11.38;3.83;;;13.60;99.90;;;;;;5057473;28;20563;-80
2023/08/06 04:20:57;;;;;;;9.05;4.10;;;13.50;99.90;;;;;;5055627;28;20290;-80
2023/08/06 04:23:24;;;;;;;11.00;4.35;;;13.50;99.90;;;;;;5056994;28;20199;-80
2023/08/06 04:25:50;;;;;;;12.80;4.95;;;13.50;99.90;;;;;;5057290;28;20215;-80
2023/08/06 04:28:18;;;;;;;10.10;5.05;;;13.50;99.90;;;;;;5053603;28;20215;-81
2023/08/06 04:30:45;;;;;;;9.05;4.68;;;13.50;99.90;;;;;;5051959;28;20215;-80
2023/08/06 04:33:12;;;;;;;12.25;4.57;;;13.50;99.90;;;;;;5044131;28;20203;-80
2023/08/06 04:35:39;;;;;;;9.43;4.75;;;13.60;99.90;;;;;;5052154;28;20286;-81
2023/08/06 04:38:06;;;;;;;8.70;4.30;;;13.70;99.90;;;;;;5055951;28;20224;-80
2023/08/06 04:40:34;;;;;;;7.55;4.45;;;13.70;99.90;;;;;;5058169;28;20203;-80
2023/08/06 04:43:01;;;;;;;11.52;4.55;;;13.70;99.90;;;;;;5051799;28;20234;-80
2023/08/06 04:45:29;;;;;;;9.93;4.82;;;13.70;99.90;;;;;;5049930;28;20201;-80
2023/08/06 04:47:56;;;;;;;7.47;4.50;;;13.70;99.90;;;;;;5054760;28;20255;-81
2023/08/06 04:50:23;;;;;;;12.18;4.35;;;13.60;99.90;;;;;;5056852;28;20209;-81
2023/08/06 04:52:50;;;;;;;10.50;4.95;;;13.70;99.90;;;;;;5056059;28;20290;-80
2023/08/06 04:55:16;;;;;;;9.48;5.03;;;13.60;99.90;;;;;;5053185;28;20218;-81
2023/08/06 04:57:43;;;;;;;8.75;5.18;;;13.70;99.90;;;;;;5050819;28;20278;-81
2023/08/06 05:00:10;;;;;;;8.15;4.80;;;13.90;99.90;;;;;;5053394;28;20199;-80
2023/08/06 05:02:39;;;;;;;9.25;5.55;;;14.00;99.90;;;;;;5045322;28;20206;-81
2023/08/06 05:05:06;;;;;;;13.80;5.65;;;14.10;99.90;;;;;;5054873;28;20286;-80
2023/08/06 05:07:33;;;;;;;13.10;5.65;;;14.20;99.90;;;;;;5056877;28;20654;-80
2023/08/06 05:10:03;;;;;;;12.23;5.40;;;14.00;99.90;;;;;;5046366;28;20207;-80
2023/08/06 05:12:30;;;;;;;10.82;5.35;;;14.00;99.90;;;;;;5056252;28;20195;-81
2023/08/06 05:14:57;;;;;;;10.98;5.25;;;14.20;99.90;;;;;;5056701;28;20207;-81
2023/08/06 05:17:24;;;;;;;7.50;4.93;;;14.20;99.90;;;;;;5055355;28;20219;-81
2023/08/06 05:19:52;;;;;;;9.13;6.00;;;14.40;99.90;;;;;;5045379;28;20218;-80
2023/08/06 05:22:19;;;;;;;9.38;5.43;;;14.40;99.90;;;;;;5055839;28;20289;-81
2023/08/06 05:24:45;;;;;;;10.10;5.40;;;14.40;99.90;;;;;;5056281;28;20218;-81
2023/08/06 05:27:13;;;;;;;9.40;5.80;;;14.50;99.90;;;;;;5052326;28;20199;-80
2023/08/06 05:29:40;;;;;;;8.23;5.47;;;14.60;99.90;;;;;;5052787;28;20220;-80
2023/08/06 05:32:07;;;;;;;9.55;5.28;;;14.70;99.90;;;;;;5051688;28;20562;-80
2023/08/06 05:34:34;;;;;;;8.18;5.18;;;14.60;99.90;;;;;;5057842;28;20270;-80
2023/08/06 05:37:02;;;;;;;10.63;5.13;;;14.60;99.90;;;;;;5055491;28;20695;-80
2023/08/06 05:39:29;;;;;;;7.88;5.50;;;14.70;99.90;;;;;;5057623;28;20645;-80
2023/08/06 05:41:56;;;;;;;8.05;4.97;;;14.60;99.90;;;;;;5043212;28;20204;-80
2023/08/06 05:44:24;;;;;;;10.02;5.10;;;14.80;99.90;;;;;;5052682;28;20206;-80
2023/08/06 05:46:51;;;;;;;9.50;5.18;;;14.70;99.90;;;;;;5053878;28;20218;-81
2023/08/06 05:49:18;;;;;;;10.63;5.13;;;14.80;99.90;;;;;;5046477;28;20685;-80
2023/08/06 05:51:45;;;;;;;8.23;5.15;;;14.80;99.90;;;;;;5054518;28;20263;-81
2023/08/06 05:54:13;;;;;;;9.32;5.32;;;15.00;99.90;;;;;;5061731;28;20344;-81
2023/08/06 05:56:40;;;;;;;6.53;4.43;;;15.20;99.90;;;;;;5053616;28;20286;-81
2023/08/06 05:59:07;;;;;;;8.63;5.00;;;15.20;99.90;;;;;;5058324;28;20253;-80
2023/08/06 06:01:33;;;;;;;6.93;4.88;;;15.20;99.90;;;;;;5056511;28;20207;-81
2023/08/06 06:04:00;;;;;;;12.32;5.57;;;15.30;99.90;;;;;;5055854;28;20617;-81
2023/08/06 06:06:27;;;;;;;6.53;4.53;;;15.30;99.90;;;;;;5051805;28;20641;-81
2023/08/06 06:08:54;;;;;;;6.65;4.20;;;15.20;99.90;;;;;;5051297;28;20224;-80
2023/08/06 06:11:22;;;;;;;6.75;4.85;;;15.30;99.90;;;;;;5043455;28;20196;-80
2023/08/06 06:13:50;;;;;;;10.07;4.03;;;15.40;99.90;;;;;;5051683;28;20290;-80
2023/08/06 06:16:17;;;;;;;6.60;3.97;;;15.30;99.90;;;;;;5053078;28;20213;-80
2023/08/06 06:18:44;;;;;;;5.80;4.50;;;15.30;99.90;;;;;;5049576;28;20227;-80
2023/08/06 06:21:11;;;;;;;8.57;3.97;;;15.40;99.90;;;;;;5052423;28;20591;-80
2023/08/06 06:23:37;;;;;;;9.05;4.30;;;15.50;99.90;;;;;;5055321;28;20579;-81
2023/08/06 06:26:04;;;;;;;6.50;4.25;;;15.50;99.90;;;;;;5054115;28;20267;-79
2023/08/06 06:28:32;;;;;;;6.13;4.20;;;15.70;99.90;;;;;;5057327;28;20298;-81
2023/08/06 06:31:01;;;;;;;5.60;4.03;;;15.80;99.90;;;;;;5056261;28;20274;-81
2023/08/06 06:33:28;;;;;;;6.05;4.22;;;15.70;99.90;;;;;;5052612;28;20210;-81
2023/08/06 06:35:55;;;;;;;8.52;4.03;;;15.60;99.90;;;;;;5052428;28;20207;-81
2023/08/06 06:38:22;;;;;;;8.50;4.10;;;15.60;99.90;;;;;;5042403;28;20305;-80
2023/08/06 06:40:55;;;;;;;5.30;3.80;;;15.60;99.90;;;;;;5055959;28;20210;-79
2023/08/06 06:43:21;;;;;;;4.80;4.20;;;15.80;99.90;;;;;;5063782;28;20211;-80
2023/08/06 06:45:53;;;;;;;6.10;4.60;;;15.90;99.90;;;;;;5052708;28;20590;-79
2023/08/06 06:48:20;;;;;;;6.97;4.43;;;15.90;99.90;;;;;;5058680;28;20286;-80
2023/08/06 06:50:48;;;;;;;4.53;4.05;;;16.20;99.90;;;;;;5048183;28;20199;-81
2023/08/06 06:53:15;;;;;;;7.18;4.43;;;16.30;99.90;;;;;;5053106;28;20208;-79
2023/08/06 06:55:42;;;;;;;4.57;3.80;;;16.30;99.90;;;;;;5046938;28;20206;-79
2023/08/06 06:58:08;;;;;;;4.38;3.95;;;16.30;99.90;;;;;;5055775;28;20225;-79
2023/08/06 07:00:36;;;;;;;6.68;4.00;;;16.40;99.90;;;;;;5046996;28;20210;-79
2023/08/06 07:03:05;;;;;;;5.45;4.10;;;16.40;99.90;;;;;;5043931;28;20209;-78
2023/08/06 07:05:31;;;;;;;4.03;3.63;;;16.40;99.90;;;;;;5048275;28;20258;-79
2023/08/06 07:07:58;;;;;;;3.88;3.47;;;16.50;99.90;;;;;;5048006;28;20223;-80
2023/08/06 07:10:26;;;;;;;5.03;3.60;;;16.60;99.90;;;;;;5045743;28;20306;-81
2023/08/06 07:12:53;;;;;;;5.60;3.40;;;16.70;99.90;;;;;;5052260;28;20298;-80
2023/08/06 07:15:21;;;;;;;6.82;3.25;;;17.30;99.90;;;;;;5054364;28;20222;-80
2023/08/06 07:17:47;;;;;;;6.32;3.65;;;17.60;99.90;;;;;;5053007;28;20282;-80
2023/08/06 07:20:16;;;;;;;5.25;3.25;;;17.40;99.90;;;;;;5054989;28;20286;-80
2023/08/06 07:22:43;;;;;;;6.95;3.22;;;17.20;99.90;;;;;;5056560;28;20213;-81
2023/08/06 07:25:09;;;;;;;4.50;3.35;;;17.20;99.90;;;;;;5054697;28;20233;-80
2023/08/06 07:27:36;;;;;;;4.40;2.97;;;17.10;99.90;;;;;;5052271;28;20295;-81
2023/08/06 07:30:05;;;;;;;4.88;2.60;;;17.10;99.90;;;;;;5044849;28;20283;-80
2023/08/06 07:32:32;;;;;;;3.20;2.90;;;17.10;99.90;;;;;;5056291;28;20211;-81
2023/08/06 07:35:00;;;;;;;3.33;2.80;;;17.10;99.90;;;;;;5056298;28;20298;-81
2023/08/06 07:37:29;;;;;;;4.57;3.00;;;17.10;99.90;;;;;;5056773;28;20245;-81
2023/08/06 07:39:56;;;;;;;4.28;2.97;;;17.00;99.90;;;;;;5057197;28;20257;-81
2023/08/06 07:42:23;;;;;;;3.10;2.53;;;17.00;99.90;;;;;;5054018;28;20238;-80
2023/08/06 07:44:52;;;;;;;3.10;2.90;;;17.10;99.90;;;;;;5053577;28;20204;-80
2023/08/06 07:47:19;;;;;;;3.15;2.67;;;17.10;99.90;;;;;;5055419;28;20231;-80
2023/08/06 07:49:46;;;;;;;4.30;2.80;;;17.00;99.90;;;;;;5059829;28;20253;-80
2023/08/06 07:52:13;;;;;;;5.07;2.80;;;17.00;99.90;;;;;;5051297;28;20398;-80
2023/08/06 07:54:42;;;;;;;3.45;2.97;;;17.10;99.90;;;;;;5056655;28;20207;-80
2023/08/06 07:57:09;;;;;;;3.58;3.25;;;17.20;99.90;;;;;;5056398;28;20234;-80
2023/08/06 07:59:35;;;;;;;3.38;3.08;;;17.30;99.90;;;;;;5056577;28;20203;-81
2023/08/06 08:02:02;;;;;;;3.10;2.80;;;17.40;99.90;;;;;;5057027;28;20210;-80
2023/08/06 08:04:29;;;;;;;3.92;3.13;;;17.40;99.90;;;;;;5059270;28;20205;-80
2023/08/06 08:06:56;;;;;;;3.50;3.13;;;17.30;99.90;;;;;;5060561;28;20210;-81
2023/08/06 08:09:23;;;;;;;3.58;3.17;;;17.50;99.90;;;;;;5057838;28;20218;-80
2023/08/06 08:11:52;;;;;;;3.33;3.03;;;17.40;99.90;;;;;;5063842;28;20213;-80
2023/08/06 08:14:19;;;;;;;5.60;3.05;;;17.40;99.90;;;;;;5059376;28;20720;-81
2023/08/06 08:16:46;;;;;;;4.78;3.47;;;17.40;99.90;;;;;;5057014;28;20246;-80
2023/08/06 08:19:13;;;;;;;3.58;3.08;;;17.40;99.90;;;;;;5057338;28;20681;-80
2023/08/06 08:21:39;;;;;;;2.75;2.55;;;17.50;99.90;;;;;;5056726;28;20234;-81
2023/08/06 08:24:06;;;;;;;3.20;2.70;;;17.60;99.90;;;;;;5057401;28;20250;-81
2023/08/06 08:26:33;;;;;;;3.50;2.90;;;17.60;99.90;;;;;;5048930;28;20608;-81
2023/08/06 08:29:02;;;;;;;4.90;2.78;;;17.60;99.90;;;;;;5064078;28;20290;-81
2023/08/06 08:31:29;;;;;;;3.05;2.80;;;17.70;99.90;;;;;;5058805;28;20230;-81
2023/08/06 08:33:56;;;;;;;5.82;3.00;;;17.80;99.90;;;;;;5057825;28;20211;-82
2023/08/06 08:36:23;;;;;;;4.68;3.25;;;17.90;99.90;;;;;;5059691;28;20203;-81
2023/08/06 08:38:53;;;;;;;4.65;3.38;;;18.00;99.90;;;;;;5061090;28;20222;-81
2023/08/06 08:41:21;;;;;;;7.18;3.70;;;18.10;99.90;;;;;;5059830;28;20639;-81
2023/08/06 08:43:50;;;;;;;4.53;2.83;;;18.20;99.90;;;;;;5061169;28;20207;-81
2023/08/06 08:46:22;;;;;;;6.22;3.05;;;18.30;99.90;;;;;;5059676;28;20230;-80
2023/08/06 08:48:49;;;;;;;3.05;2.85;;;18.30;99.90;;;;;;5057437;28;20235;-81
2023/08/06 08:51:17;;;;;;;3.33;3.03;;;18.50;99.90;;;;;;5057101;28;20218;-81
2023/08/06 08:53:46;;;;;;;4.20;3.47;;;18.50;99.90;;;;;;5058539;28;20290;-82
2023/08/06 08:56:14;;;;;;;3.28;2.70;;;18.40;99.90;;;;;;5058490;28;20226;-82
2023/08/06 08:58:41;;;;;;;4.75;2.70;;;18.40;99.90;;;;;;5060946;28;20305;-80
2023/08/06 09:01:09;;;;;;;6.47;3.38;;;18.70;99.90;;;;;;5060416;28;20221;-81
2023/08/06 09:03:38;;;;;;;4.82;2.97;;;18.80;99.90;;;;;;5041636;28;20200;-81
2023/08/06 09:06:06;;;;;;;4.30;2.85;;;18.80;99.90;;;;;;5057495;28;20279;-81
2023/08/06 09:08:38;;;;;;;3.60;2.67;;;18.90;99.90;;;;;;5056523;28;20231;-81
2023/08/06 09:11:06;;;;;;;4.80;3.08;;;18.60;99.90;;;;;;5056604;28;20219;-81
2023/08/06 09:13:33;;;;;;;3.13;2.90;;;18.60;99.90;;;;;;5056437;28;20208;-81
2023/08/06 09:15:59;;;;;;;3.28;3.00;;;18.50;99.90;;;;;;5056132;28;20207;-81
2023/08/06 09:18:28;;;;;;;3.75;2.78;;;18.80;99.90;;;;;;5055928;28;20223;-81
2023/08/06 09:20:56;;;;;;;3.90;3.05;;;18.80;99.90;;;;;;5057085;28;20200;-81
2023/08/06 09:23:29;;;;;;;3.30;2.75;;;19.00;99.90;;;;;;5058286;28;20224;-82
2023/08/06 09:25:56;;;;;;;3.60;3.30;;;19.10;99.90;;;;;;5062501;28;20234;-81
2023/08/06 09:28:24;;;;;;;3.47;3.15;;;19.10;99.90;;;;;;5056286;28;20215;-82
2023/08/06 09:30:51;;;;;;;3.10;2.80;;;18.90;99.90;;;;;;5055906;28;20242;-80
2023/08/06 09:33:19;;;;;;;2.97;2.70;;;18.80;99.90;;;;;;5056246;28;20204;-81
2023/08/06 09:35:47;;;;;;;3.75;2.72;;;18.80;99.90;;;;;;5063040;28;20266;-80
2023/08/06 09:38:15;;;;;;;3.78;2.67;;;19.30;99.90;;;;;;5055061;28;20233;-81
2023/08/06 09:40:42;;;;;;;4.47;2.80;;;19.60;99.90;;;;;;5055907;28;20657;-80
2023/08/06 09:43:09;;;;;;;3.63;3.22;;;20.10;99.90;;;;;;5054647;28;20212;-81
2023/08/06 09:45:37;;;;;;;3.75;3.10;;;20.20;99.90;;;;;;5050316;28;20268;-81
2023/08/06 09:48:05;;;;;;;4.28;2.35;;;20.80;99.90;;;;;;5058745;28;20286;-80
2023/08/06 09:50:33;;;;;;;5.00;2.30;;;21.20;99.90;;;;;;5059724;28;20228;-80
2023/08/06 09:53:01;;;;;;;3.13;2.35;;;21.50;99.90;;;;;;5059686;28;20225;-81
2023/08/06 09:55:30;;;;;;;2.50;2.30;;;21.60;99.90;;;;;;5043680;28;20200;-81
2023/08/06 09:57:57;;;;;;;3.72;2.25;;;21.40;99.90;;;;;;5057879;28;20306;-81
2023/08/06 10:00:25;;;;;;;2.83;2.20;;;21.50;99.90;;;;;;5056259;28;20225;-81
2023/08/06 10:02:55;;;;;;;2.90;2.20;;;21.60;99.90;;;;;;5057504;28;20199;-81
2023/08/06 10:05:23;;;;;;;2.63;2.38;;;21.20;99.90;;;;;;5057807;28;20215;-81
2023/08/06 10:07:51;;;;;;;3.05;2.38;;;20.90;99.90;;;;;;5058581;28;20226;-81
2023/08/06 10:10:19;;;;;;;2.85;2.60;;;20.80;99.90;;;;;;5056780;28;20222;-80
2023/08/06 10:12:51;;;;;;;3.03;2.55;;;21.60;99.90;;;;;;5049557;28;20199;-81
2023/08/06 10:15:22;;;;;;;3.75;2.55;;;21.00;99.90;;;;;;5058100;28;20207;-81
2023/08/06 10:17:53;;;;;;;2.80;2.60;;;21.00;99.90;;;;;;5054516;28;20230;-80
2023/08/06 10:20:22;;;;;;;3.38;2.50;;;21.20;99.90;;;;;;5053922;28;20286;-81
2023/08/06 10:23:01;;;;;;;2.75;2.30;;;21.30;99.90;;;;;;5057789;28;20203;-80
2023/08/06 10:25:32;;;;;;;2.60;2.40;;;21.70;99.90;;;;;;5057546;28;20203;-80
2023/08/06 10:28:01;;;;;;;2.90;2.20;;;22.00;99.90;;;;;;5058192;28;20221;-80
2023/08/06 10:30:29;;;;;;;2.40;2.20;;;21.50;99.90;;;;;;5055393;28;20225;-81
2023/08/06 10:33:00;;;;;;;3.30;2.33;;;21.60;99.90;;;;;;5054241;28;20200;-81
2023/08/06 10:35:31;;;;;;;3.10;2.40;;;21.70;99.90;;;;;;5053188;28;20203;-80
2023/08/06 10:38:05;;;;;;;4.72;2.35;;;22.10;99.90;;;;;;5050025;28;20226;-80
2023/08/06 10:40:32;;;;;;;3.35;2.45;;;23.00;99.90;;;;;;5054067;28;20246;-80
2023/08/06 10:43:01;;;;;;;2.60;2.10;;;22.90;99.90;;;;;;5057654;28;20231;-79
2023/08/06 10:45:30;;;;;;;3.22;2.20;;;22.20;99.90;;;;;;5061100;28;20203;-80
2023/08/06 10:47:58;;;;;;;2.20;2.10;;;21.60;99.90;;;;;;5057767;28;20258;-80
2023/08/06 10:50:25;;;;;;;3.00;2.15;;;21.10;99.90;;;;;;5047611;28;20218;-80
2023/08/06 10:52:53;;;;;;;2.50;2.30;;;21.00;99.90;;;;;;5062327;28;20246;-81
2023/08/06 10:55:28;;;;;;;1.98;1.88;;;21.00;99.90;;;;;;5055192;28;20279;-79
2023/08/06 10:57:55;;;;;;;2.58;2.03;;;20.70;99.90;;;;;;5045668;28;20310;-81
2023/08/06 11:00:24;;;;;;;5.55;2.25;;;20.90;99.90;;;;;;5052784;28;20673;-81
2023/08/06 11:02:54;;;;;;;2.47;2.28;;;21.50;99.90;;;;;;5056348;28;20210;-80
2023/08/06 11:05:21;;;;;;;2.53;2.30;;;21.80;99.90;;;;;;5056053;28;20238;-80
2023/08/06 11:07:49;;;;;;;3.72;1.90;;;21.90;99.90;;;;;;5051854;28;20275;-80
2023/08/06 11:10:16;;;;;;;2.40;2.05;;;21.50;99.90;;;;;;5059941;28;20229;-81
2023/08/06 11:12:43;;;;;;;3.70;2.10;;;21.30;99.90;;;;;;5052167;28;20230;-80
2023/08/06 11:15:13;;;;;;;3.13;1.88;;;21.40;99.90;;;;;;5052093;28;20291;-81
2023/08/06 11:17:42;;;;;;;2.22;2.03;;;21.20;99.90;;;;;;5053846;28;20637;-80
2023/08/06 11:20:10;;;;;;;2.08;1.92;;;21.50;99.90;;;;;;5055420;28;20203;-80
2023/08/06 11:22:38;;;;;;;3.13;1.67;;;21.80;99.90;;;;;;5053663;28;20266;-80
2023/08/06 11:25:06;;;;;;;2.58;2.13;;;22.40;99.90;;;;;;5052616;28;20592;-80
2023/08/06 11:27:33;;;;;;;2.30;2.10;;;22.20;99.90;;;;;;5053782;28;20262;-80
2023/08/06 11:30:00;;;;;;;5.00;2.50;;;22.00;99.90;;;;;;5055220;28;20346;-80
2023/08/06 11:32:28;;;;;;;5.05;1.77;;;21.90;99.90;;;;;;5055351;28;20229;-80
2023/08/06 11:34:56;;;;;;;2.03;1.92;;;21.70;99.90;;;;;;5046902;28;20266;-81
2023/08/06 11:37:25;;;;;;;2.22;2.03;;;22.20;99.90;;;;;;5057740;28;20387;-80
2023/08/06 11:39:52;;;;;;;3.17;1.80;;;22.40;99.90;;;;;;5036919;28;20199;-80
2023/08/06 11:42:19;;;;;;;3.38;2.08;;;22.80;99.90;;;;;;5055140;28;20199;-80
2023/08/06 11:44:46;;;;;;;2.35;1.92;;;23.10;99.90;;;;;;5052289;28;20263;-80
2023/08/06 11:47:15;;;;;;;5.78;2.30;;;24.10;99.90;;;;;;5051324;28;20203;-80
2023/08/06 11:49:45;;;;;;;3.10;1.90;;;23.50;99.90;;;;;;5053320;28;20207;-80
2023/08/06 11:52:16;;;;;;;3.08;1.80;;;23.90;99.90;;;;;;5054582;28;20210;-80
2023/08/06 11:54:43;;;;;;;1.95;1.85;;;24.10;99.90;;;;;;5060459;28;20216;-80
2023/08/06 11:57:10;;;;;;;2.30;1.67;;;23.60;99.90;;;;;;5048523;28;20258;-80
2023/08/06 11:59:38;;;;;;;3.92;2.03;;;23.40;99.90;;;;;;5046937;28;20286;-80
2023/08/06 12:02:06;;;;;;;2.28;2.08;;;23.90;99.90;;;;;;5054573;28;20231;-81
2023/08/06 12:04:51;;;;;;;3.15;2.03;;;23.60;99.90;;;;;;5053027;28;20210;-80
2023/08/06 12:07:19;;;;;;;2.00;1.90;;;23.00;99.90;;;;;;5057861;28;20226;-80
2023/08/06 12:09:46;;;;;;;2.67;1.92;;;22.80;99.90;;;;;;5042611;28;20207;-80
2023/08/06 12:12:13;;;;;;;2.20;2.00;;;22.50;99.90;;;;;;5055964;28;20195;-80
2023/08/06 12:14:40;;;;;;;2.53;2.15;;;22.20;99.90;;;;;;5053996;28;20214;-80
2023/08/06 12:17:07;;;;;;;2.20;2.00;;;22.10;99.90;;;;;;5053622;28;20551;-80
2023/08/06 12:19:33;;;;;;;2.75;2.20;;;22.30;99.90;;;;;;5045479;28;20267;-79
2023/08/06 12:22:00;;;;;;;2.15;1.70;;;22.20;99.90;;;;;;5049199;28;20283;-80
2023/08/06 12:24:31;;;;;;;1.73;1.63;;;22.40;99.90;;;;;;5050875;28;20200;-80
2023/08/06 12:27:02;;;;;;;3.28;2.13;;;22.40;99.90;;;;;;5042331;28;20688;-79
2023/08/06 12:29:29;;;;;;;2.67;2.15;;;22.30;99.90;;;;;;5049495;28;20202;-80
2023/08/06 12:31:56;;;;;;;2.42;2.08;;;22.60;99.90;;;;;;5042026;28;20216;-81
2023/08/06 12:34:24;;;;;;;1.95;1.75;;;22.80;99.90;;;;;;5049471;28;20200;-79
2023/08/06 12:36:50;;;;;;;2.70;1.83;;;23.10;99.90;;;;;;5055792;28;20198;-80
2023/08/06 12:39:17;;;;;;;2.33;2.13;;;22.70;99.90;;;;;;5050764;28;20675;-81
2023/08/06 12:41:45;;;;;;;1.98;1.63;;;22.30;99.90;;;;;;5062358;28;20555;-80
2023/08/06 12:44:12;;;;;;;2.00;1.90;;;22.20;99.90;;;;;;5053830;28;20267;-80
2023/08/06 12:46:39;;;;;;;2.33;2.13;;;22.20;99.90;;;;;;5053519;28;20229;-80
2023/08/06 12:49:06;;;;;;;2.40;2.20;;;22.60;99.90;;;;;;5049477;28;20229;-80